sensor_id;sensor_type;location;lat;lon;timestamp;pressure;altitude;pressure_sealevel;temperature;humidity
60583;BME280;46415;47.536;19.066;2024-03-08T00:01:12;-18362.75;;;4.89;100.00
60583;BME280;46415;47.536;19.066;2024-03-08T00:04:15;-18363.31;;;4.91;100.00
60583;BME280;46415;47.536;19.066;2024-03-08T00:07:18;-18362.88;;;4.90;100.00
60583;BME280;46415;47.536;19.066;2024-03-08T00:10:21;-18365.78;;;5.01;100.00
60583;BME280;46415;47.536;19.066;2024-03-08T00:13:27;-18366.75;;;5.04;100.00
60583;BME280;46415;47.536;19.066;2024-03-08T00:16:31;-18366.19;;;5.02;100.00
60583;BME280;46415;47.536;19.066;2024-03-08T00:19:33;-18367.28;;;5.06;100.00
60583;BME280;46415;47.536;19.066;2024-03-08T00:22:40;-18366.59;;;5.04;100.00
60583;BME280;46415;47.536;19.066;2024-03-08T00:25:43;-18366.75;;;5.04;100.00
60583;BME280;46415;47.536;19.066;2024-03-08T00:28:46;-18367.69;;;5.08;100.00
60583;BME280;46415;47.536;19.066;2024-03-08T00:31:49;-18367.00;;;5.05;100.00
60583;BME280;46415;47.536;19.066;2024-03-08T00:34:53;-18365.22;;;4.99;100.00
60583;BME280;46415;47.536;19.066;2024-03-08T00:37:56;-18366.47;;;5.03;100.00
60583;BME280;46415;47.536;19.066;2024-03-08T00:41:00;-18364.81;;;4.97;100.00
60583;BME280;46415;47.536;19.066;2024-03-08T00:44:03;-18364.69;;;4.97;100.00
60583;BME280;46415;47.536;19.066;2024-03-08T00:47:07;-18365.50;;;5.00;100.00
60583;BME280;46415;47.536;19.066;2024-03-08T00:50:10;-18365.09;;;4.98;100.00
60583;BME280;46415;47.536;19.066;2024-03-08T00:53:13;-18365.63;;;5.00;100.00
60583;BME280;46415;47.536;19.066;2024-03-08T00:56:16;-18365.91;;;5.01;100.00
60583;BME280;46415;47.536;19.066;2024-03-08T00:59:19;-18366.03;;;5.02;100.00
60583;BME280;46415;47.536;19.066;2024-03-08T01:02:22;-18366.47;;;5.03;100.00
60583;BME280;46415;47.536;19.066;2024-03-08T01:05:26;-18367.00;;;5.05;100.00
60583;BME280;46415;47.536;19.066;2024-03-08T01:08:29;-18366.75;;;5.04;100.00
60583;BME280;46415;47.536;19.066;2024-03-08T01:11:33;-18367.00;;;5.05;100.00
60583;BME280;46415;47.536;19.066;2024-03-08T01:14:36;-18367.41;;;5.07;100.00
60583;BME280;46415;47.536;19.066;2024-03-08T01:17:39;-18367.97;;;5.09;100.00
60583;BME280;46415;47.536;19.066;2024-03-08T01:20:42;-18368.66;;;5.11;100.00
60583;BME280;46415;47.536;19.066;2024-03-08T01:23:45;-18368.53;;;5.11;100.00
60583;BME280;46415;47.536;19.066;2024-03-08T01:26:48;-18367.97;;;5.09;100.00
60583;BME280;46415;47.536;19.066;2024-03-08T01:29:51;-18368.81;;;5.12;100.00
60583;BME280;46415;47.536;19.066;2024-03-08T01:32:54;-18369.22;;;5.13;100.00
60583;BME280;46415;47.536;19.066;2024-03-08T01:35:58;-18368.53;;;5.11;100.00
60583;BME280;46415;47.536;19.066;2024-03-08T01:39:01;-18367.84;;;5.08;100.00
60583;BME280;46415;47.536;19.066;2024-03-08T01:42:04;-18367.00;;;5.05;100.00
60583;BME280;46415;47.536;19.066;2024-03-08T01:45:07;-18367.69;;;5.08;100.00
60583;BME280;46415;47.536;19.066;2024-03-08T01:48:10;-18368.94;;;5.12;100.00
60583;BME280;46415;47.536;19.066;2024-03-08T01:51:14;-18368.53;;;5.11;100.00
60583;BME280;46415;47.536;19.066;2024-03-08T01:54:19;-18368.53;;;5.11;100.00
60583;BME280;46415;47.536;19.066;2024-03-08T01:57:22;-18368.66;;;5.11;100.00
60583;BME280;46415;47.536;19.066;2024-03-08T02:00:26;-18370.72;;;5.19;100.00
60583;BME280;46415;47.536;19.066;2024-03-08T02:03:29;-18370.59;;;5.18;100.00
60583;BME280;46415;47.536;19.066;2024-03-08T02:06:34;-18370.59;;;5.18;100.00
60583;BME280;46415;47.536;19.066;2024-03-08T02:09:37;-18370.84;;;5.19;100.00
60583;BME280;46415;47.536;19.066;2024-03-08T02:12:40;-18370.31;;;5.17;100.00
60583;BME280;46415;47.536;19.066;2024-03-08T02:15:54;-18370.84;;;5.19;100.00
60583;BME280;46415;47.536;19.066;2024-03-08T02:18:57;-18370.59;;;5.18;100.00
60583;BME280;46415;47.536;19.066;2024-03-08T02:22:00;-18371.28;;;5.21;100.00
60583;BME280;46415;47.536;19.066;2024-03-08T02:25:08;-18371.81;;;5.23;100.00
60583;BME280;46415;47.536;19.066;2024-03-08T02:28:12;-18372.38;;;5.25;100.00
60583;BME280;46415;47.536;19.066;2024-03-08T02:31:15;-18372.78;;;5.26;100.00
60583;BME280;46415;47.536;19.066;2024-03-08T02:34:18;-18372.94;;;5.27;100.00
60583;BME280;46415;47.536;19.066;2024-03-08T02:37:21;-18374.56;;;5.33;100.00
60583;BME280;46415;47.536;19.066;2024-03-08T02:40:24;-18375.25;;;5.36;100.00
60583;BME280;46415;47.536;19.066;2024-03-08T02:43:26;-18374.72;;;5.33;100.00
60583;BME280;46415;47.536;19.066;2024-03-08T02:46:30;-18376.63;;;5.41;100.00
60583;BME280;46415;47.536;19.066;2024-03-08T02:49:33;-18375.00;;;5.34;100.00
60583;BME280;46415;47.536;19.066;2024-03-08T02:52:36;-18376.63;;;5.41;100.00
60583;BME280;46415;47.536;19.066;2024-03-08T02:55:39;-18376.78;;;5.41;100.00
60583;BME280;46415;47.536;19.066;2024-03-08T02:58:44;-18375.81;;;5.38;100.00
60583;BME280;46415;47.536;19.066;2024-03-08T03:01:51;-18375.13;;;5.35;100.00
60583;BME280;46415;47.536;19.066;2024-03-08T03:04:54;-18375.00;;;5.34;100.00
60583;BME280;46415;47.536;19.066;2024-03-08T03:07:58;-18375.94;;;5.38;100.00
60583;BME280;46415;47.536;19.066;2024-03-08T03:11:01;-18375.00;;;5.34;100.00
60583;BME280;46415;47.536;19.066;2024-03-08T03:14:04;-18376.38;;;5.40;100.00
60583;BME280;46415;47.536;19.066;2024-03-08T03:17:07;-18375.25;;;5.36;100.00
60583;BME280;46415;47.536;19.066;2024-03-08T03:20:12;-18374.16;;;5.31;100.00
60583;BME280;46415;47.536;19.066;2024-03-08T03:23:25;-18375.25;;;5.36;100.00
60583;BME280;46415;47.536;19.066;2024-03-08T03:26:29;-18376.38;;;5.40;100.00
60583;BME280;46415;47.536;19.066;2024-03-08T03:29:32;-18375.13;;;5.35;100.00
60583;BME280;46415;47.536;19.066;2024-03-08T03:32:35;-18373.34;;;5.28;100.00
60583;BME280;46415;47.536;19.066;2024-03-08T03:35:50;-18374.03;;;5.31;100.00
60583;BME280;46415;47.536;19.066;2024-03-08T03:38:54;-18371.28;;;5.21;100.00
60583;BME280;46415;47.536;19.066;2024-03-08T03:42:12;-18373.06;;;5.27;100.00
60583;BME280;46415;47.536;19.066;2024-03-08T03:45:17;-18373.19;;;5.28;100.00
60583;BME280;46415;47.536;19.066;2024-03-08T03:48:22;-18374.28;;;5.32;100.00
60583;BME280;46415;47.536;19.066;2024-03-08T03:51:25;-18369.63;;;5.15;100.00
60583;BME280;46415;47.536;19.066;2024-03-08T03:54:29;-18369.34;;;5.14;100.00
60583;BME280;46415;47.536;19.066;2024-03-08T03:57:33;-18366.88;;;5.05;100.00
60583;BME280;46415;47.536;19.066;2024-03-08T04:00:36;-18366.31;;;5.03;100.00
60583;BME280;46415;47.536;19.066;2024-03-08T04:03:41;-18366.59;;;5.04;100.00
60583;BME280;46415;47.536;19.066;2024-03-08T04:06:45;-18367.84;;;5.08;100.00
60583;BME280;46415;47.536;19.066;2024-03-08T04:09:48;-18367.69;;;5.08;100.00
60583;BME280;46415;47.536;19.066;2024-03-08T04:12:51;-18367.16;;;5.06;100.00
60583;BME280;46415;47.536;19.066;2024-03-08T04:15:55;-18367.84;;;5.08;100.00
60583;BME280;46415;47.536;19.066;2024-03-08T04:18:58;-18368.94;;;5.12;100.00
60583;BME280;46415;47.536;19.066;2024-03-08T04:22:01;-18369.22;;;5.13;100.00
60583;BME280;46415;47.536;19.066;2024-03-08T04:25:05;-18370.44;;;5.18;100.00
60583;BME280;46415;47.536;19.066;2024-03-08T04:28:08;-18368.25;;;5.10;100.00
60583;BME280;46415;47.536;19.066;2024-03-08T04:31:14;-18367.56;;;5.07;100.00
60583;BME280;46415;47.536;19.066;2024-03-08T04:34:18;-18365.09;;;4.98;100.00
60583;BME280;46415;47.536;19.066;2024-03-08T04:37:21;-18365.38;;;4.99;100.00
60583;BME280;46415;47.536;19.066;2024-03-08T04:40:24;-18364.53;;;4.96;100.00
60583;BME280;46415;47.536;19.066;2024-03-08T04:43:27;-18364.53;;;4.96;100.00
60583;BME280;46415;47.536;19.066;2024-03-08T04:46:33;-18362.88;;;4.90;100.00
60583;BME280;46415;47.536;19.066;2024-03-08T04:49:37;-18362.88;;;4.90;100.00
60583;BME280;46415;47.536;19.066;2024-03-08T04:52:40;-18363.44;;;4.92;100.00
60583;BME280;46415;47.536;19.066;2024-03-08T04:55:43;-18366.59;;;5.04;100.00
60583;BME280;46415;47.536;19.066;2024-03-08T04:58:47;-18365.22;;;4.99;100.00
60583;BME280;46415;47.536;19.066;2024-03-08T05:01:50;-18363.31;;;4.91;100.00
60583;BME280;46415;47.536;19.066;2024-03-08T05:04:54;-18360.56;;;4.81;100.00
60583;BME280;46415;47.536;19.066;2024-03-08T05:07:57;-18358.75;;;4.75;100.00
60583;BME280;46415;47.536;19.066;2024-03-08T05:11:00;-18359.03;;;4.76;100.00
60583;BME280;46415;47.536;19.066;2024-03-08T05:14:06;-18359.59;;;4.78;100.00
60583;BME280;46415;47.536;19.066;2024-03-08T05:17:12;-18359.19;;;4.76;100.00
60583;BME280;46415;47.536;19.066;2024-03-08T05:20:15;-18359.59;;;4.78;100.00
60583;BME280;46415;47.536;19.066;2024-03-08T05:23:20;-18360.69;;;4.82;100.00
60583;BME280;46415;47.536;19.066;2024-03-08T05:26:24;-18359.88;;;4.79;100.00
60583;BME280;46415;47.536;19.066;2024-03-08T05:29:28;-18361.50;;;4.85;100.00
60583;BME280;46415;47.536;19.066;2024-03-08T05:32:32;-18360.13;;;4.80;100.00
60583;BME280;46415;47.536;19.066;2024-03-08T05:35:36;-18361.50;;;4.85;100.00
60583;BME280;46415;47.536;19.066;2024-03-08T05:38:38;-18360.97;;;4.83;100.00
60583;BME280;46415;47.536;19.066;2024-03-08T05:41:42;-18363.56;;;4.92;100.00
60583;BME280;46415;47.536;19.066;2024-03-08T05:44:45;-18364.25;;;4.95;100.00
60583;BME280;46415;47.536;19.066;2024-03-08T05:47:48;-18362.75;;;4.89;100.00
60583;BME280;46415;47.536;19.066;2024-03-08T05:50:51;-18363.72;;;4.93;100.00
60583;BME280;46415;47.536;19.066;2024-03-08T05:53:54;-18365.78;;;5.01;100.00
60583;BME280;46415;47.536;19.066;2024-03-08T05:56:58;-18364.69;;;4.97;100.00
60583;BME280;46415;47.536;19.066;2024-03-08T06:00:01;-18365.38;;;4.99;100.00
60583;BME280;46415;47.536;19.066;2024-03-08T06:03:13;-18367.28;;;5.06;100.00
60583;BME280;46415;47.536;19.066;2024-03-08T06:06:16;-18369.75;;;5.15;100.00
60583;BME280;46415;47.536;19.066;2024-03-08T06:09:20;-18367.00;;;5.05;100.00
60583;BME280;46415;47.536;19.066;2024-03-08T06:12:27;-18367.41;;;5.07;100.00
60583;BME280;46415;47.536;19.066;2024-03-08T06:15:34;-18370.03;;;5.16;100.00
60583;BME280;46415;47.536;19.066;2024-03-08T06:18:38;-18371.41;;;5.21;100.00
60583;BME280;46415;47.536;19.066;2024-03-08T06:21:42;-18372.66;;;5.26;100.00
60583;BME280;46415;47.536;19.066;2024-03-08T06:24:45;-18373.19;;;5.28;100.00
60583;BME280;46415;47.536;19.066;2024-03-08T06:27:48;-18373.19;;;5.28;100.00
60583;BME280;46415;47.536;19.066;2024-03-08T06:30:51;-18375.66;;;5.37;100.00
60583;BME280;46415;47.536;19.066;2024-03-08T06:33:54;-18374.16;;;5.31;100.00
60583;BME280;46415;47.536;19.066;2024-03-08T06:36:59;-18373.87;;;5.30;100.00
60583;BME280;46415;47.536;19.066;2024-03-08T06:40:20;-18373.87;;;5.30;100.00
60583;BME280;46415;47.536;19.066;2024-03-08T06:43:24;-18375.66;;;5.37;100.00
60583;BME280;46415;47.536;19.066;2024-03-08T06:46:35;-18375.53;;;5.37;100.00
60583;BME280;46415;47.536;19.066;2024-03-08T06:49:38;-18376.38;;;5.40;100.00
60583;BME280;46415;47.536;19.066;2024-03-08T06:52:41;-18375.81;;;5.38;100.00
60583;BME280;46415;47.536;19.066;2024-03-08T06:55:49;-18375.41;;;5.36;100.00
60583;BME280;46415;47.536;19.066;2024-03-08T06:58:52;-18376.09;;;5.39;100.00
60583;BME280;46415;47.536;19.066;2024-03-08T07:01:56;-18377.06;;;5.42;100.00
60583;BME280;46415;47.536;19.066;2024-03-08T07:04:58;-18375.25;;;5.36;100.00
60583;BME280;46415;47.536;19.066;2024-03-08T07:08:01;-18378.97;;;5.49;100.00
60583;BME280;46415;47.536;19.066;2024-03-08T07:11:04;-18382.69;;;5.63;100.00
60583;BME280;46415;47.536;19.066;2024-03-08T07:14:08;-18384.75;;;5.70;100.00
60583;BME280;46415;47.536;19.066;2024-03-08T07:17:12;-18384.19;;;5.68;100.00
60583;BME280;46415;47.536;19.066;2024-03-08T07:20:15;-18389.44;;;5.88;100.00
60583;BME280;46415;47.536;19.066;2024-03-08T07:23:21;-18388.44;;;5.84;100.00
60583;BME280;46415;47.536;19.066;2024-03-08T07:27:00;-18389.28;;;5.87;100.00
60583;BME280;46415;47.536;19.066;2024-03-08T07:30:03;-18389.97;;;5.90;100.00
60583;BME280;46415;47.536;19.066;2024-03-08T07:33:11;-18389.56;;;5.88;100.00
60583;BME280;46415;47.536;19.066;2024-03-08T07:36:15;-18390.94;;;5.93;100.00
60583;BME280;46415;47.536;19.066;2024-03-08T07:39:18;-18392.72;;;6.00;100.00
60583;BME280;46415;47.536;19.066;2024-03-08T07:42:21;-18392.84;;;6.00;100.00
60583;BME280;46415;47.536;19.066;2024-03-08T07:45:25;-18393.28;;;6.02;100.00
60583;BME280;46415;47.536;19.066;2024-03-08T07:48:28;-18392.84;;;6.00;100.00
60583;BME280;46415;47.536;19.066;2024-03-08T07:51:33;-18393.41;;;6.02;100.00
60583;BME280;46415;47.536;19.066;2024-03-08T07:54:37;-18395.06;;;6.08;100.00
60583;BME280;46415;47.536;19.066;2024-03-08T07:57:40;-18398.91;;;6.23;100.00
60583;BME280;46415;47.536;19.066;2024-03-08T08:00:45;-18401.09;;;6.31;100.00
60583;BME280;46415;47.536;19.066;2024-03-08T08:03:48;-18403.72;;;6.40;100.00
60583;BME280;46415;47.536;19.066;2024-03-08T08:06:53;-18403.56;;;6.40;100.00
60583;BME280;46415;47.536;19.066;2024-03-08T08:09:57;-18408.25;;;6.57;100.00
60583;BME280;46415;47.536;19.066;2024-03-08T08:13:00;-18412.38;;;6.72;100.00
60583;BME280;46415;47.536;19.066;2024-03-08T08:16:05;-18408.94;;;6.60;100.00
60583;BME280;46415;47.536;19.066;2024-03-08T08:19:08;-18409.75;;;6.63;100.00
60583;BME280;46415;47.536;19.066;2024-03-08T08:22:12;-18406.59;;;6.51;100.00
60583;BME280;46415;47.536;19.066;2024-03-08T08:25:15;-18406.59;;;6.51;100.00
60583;BME280;46415;47.536;19.066;2024-03-08T08:28:18;-18404.13;;;6.42;100.00
60583;BME280;46415;47.536;19.066;2024-03-08T08:31:21;-18409.06;;;6.60;100.00
60583;BME280;46415;47.536;19.066;2024-03-08T08:34:25;-18408.66;;;6.59;100.00
60583;BME280;46415;47.536;19.066;2024-03-08T08:37:28;-18408.38;;;6.57;100.00
60583;BME280;46415;47.536;19.066;2024-03-08T08:40:31;-18409.34;;;6.61;100.00
60583;BME280;46415;47.536;19.066;2024-03-08T08:43:34;-18407.41;;;6.54;100.00
60583;BME280;46415;47.536;19.066;2024-03-08T08:46:39;-18409.06;;;6.60;100.00
60583;BME280;46415;47.536;19.066;2024-03-08T08:49:43;-18409.22;;;6.61;100.00
60583;BME280;46415;47.536;19.066;2024-03-08T08:52:47;-18407.41;;;6.54;100.00
60583;BME280;46415;47.536;19.066;2024-03-08T08:55:50;-18408.78;;;6.59;100.00
60583;BME280;46415;47.536;19.066;2024-03-08T08:58:54;-18407.69;;;6.55;100.00
60583;BME280;46415;47.536;19.066;2024-03-08T09:01:57;-18410.84;;;6.67;100.00
60583;BME280;46415;47.536;19.066;2024-03-08T09:05:00;-18410.72;;;6.66;100.00
60583;BME280;46415;47.536;19.066;2024-03-08T09:08:06;-18409.88;;;6.63;100.00
60583;BME280;46415;47.536;19.066;2024-03-08T09:11:11;-18411.00;;;6.67;100.00
60583;BME280;46415;47.536;19.066;2024-03-08T09:14:15;-18415.09;;;6.82;100.00
60583;BME280;46415;47.536;19.066;2024-03-08T09:17:18;-18415.66;;;6.84;100.00
60583;BME280;46415;47.536;19.066;2024-03-08T09:20:23;-18418.97;;;6.96;100.00
60583;BME280;46415;47.536;19.066;2024-03-08T09:23:28;-18421.16;;;7.05;100.00
60583;BME280;46415;47.536;19.066;2024-03-08T09:26:32;-18420.88;;;7.04;100.00
60583;BME280;46415;47.536;19.066;2024-03-08T09:29:36;-18423.06;;;7.12;100.00
60583;BME280;46415;47.536;19.066;2024-03-08T09:32:39;-18423.63;;;7.14;100.00
60583;BME280;46415;47.536;19.066;2024-03-08T09:35:42;-18424.72;;;7.18;100.00
60583;BME280;46415;47.536;19.066;2024-03-08T09:38:45;-18425.53;;;7.21;100.00
60583;BME280;46415;47.536;19.066;2024-03-08T09:41:48;-18429.66;;;7.36;100.00
60583;BME280;46415;47.536;19.066;2024-03-08T09:44:52;-18437.34;;;7.64;100.00
60583;BME280;46415;47.536;19.066;2024-03-08T09:47:55;-18442.00;;;7.82;100.00
60583;BME280;46415;47.536;19.066;2024-03-08T09:50:58;-18445.16;;;7.93;100.00
60583;BME280;46415;47.536;19.066;2024-03-08T09:54:02;-18450.38;;;8.12;100.00
60583;BME280;46415;47.536;19.066;2024-03-08T09:57:19;-18450.38;;;8.12;100.00
60583;BME280;46415;47.536;19.066;2024-03-08T10:00:23;-18456.00;;;8.33;100.00
60583;BME280;46415;47.536;19.066;2024-03-08T10:03:28;-18456.41;;;8.35;100.00
60583;BME280;46415;47.536;19.066;2024-03-08T10:06:32;-18455.19;;;8.30;100.00
60583;BME280;46415;47.536;19.066;2024-03-08T10:09:35;-18453.00;;;8.22;100.00
60583;BME280;46415;47.536;19.066;2024-03-08T10:12:38;-18452.44;;;8.20;100.00
60583;BME280;46415;47.536;19.066;2024-03-08T10:15:42;-18453.81;;;8.25;100.00
60583;BME280;46415;47.536;19.066;2024-03-08T10:18:45;-18453.81;;;8.25;100.00
60583;BME280;46415;47.536;19.066;2024-03-08T10:21:49;-18456.84;;;8.36;100.00
60583;BME280;46415;47.536;19.066;2024-03-08T10:24:54;-18457.25;;;8.38;100.00
60583;BME280;46415;47.536;19.066;2024-03-08T10:27:58;-18457.53;;;8.39;100.00
60583;BME280;46415;47.536;19.066;2024-03-08T10:31:01;-18462.47;;;8.57;100.00
60583;BME280;46415;47.536;19.066;2024-03-08T10:34:04;-18468.63;;;8.80;100.00
60583;BME280;46415;47.536;19.066;2024-03-08T10:37:12;-18464.25;;;8.64;100.00
60583;BME280;46415;47.536;19.066;2024-03-08T10:40:19;-18465.88;;;8.70;100.00
60583;BME280;46415;47.536;19.066;2024-03-08T10:43:23;-18465.34;;;8.68;100.00
60583;BME280;46415;47.536;19.066;2024-03-08T10:50:17;-18470.81;;;8.88;100.00
60583;BME280;46415;47.536;19.066;2024-03-08T10:53:26;-18480.00;;;9.22;100.00
60583;BME280;46415;47.536;19.066;2024-03-08T10:56:29;-18485.09;;;9.40;100.00
60583;BME280;46415;47.536;19.066;2024-03-08T10:59:33;-18488.63;;;9.54;100.00
60583;BME280;46415;47.536;19.066;2024-03-08T11:02:37;-18500.16;;;9.96;100.00
60583;BME280;46415;47.536;19.066;2024-03-08T11:05:41;-18507.97;;;10.25;100.00
60583;BME280;46415;47.536;19.066;2024-03-08T11:08:48;-18507.81;;;10.25;100.00
60583;BME280;46415;47.536;19.066;2024-03-08T11:15:24;-18484.66;;;9.39;100.00
60583;BME280;46415;47.536;19.066;2024-03-08T11:18:27;-18479.72;;;9.21;100.00
60583;BME280;46415;47.536;19.066;2024-03-08T11:21:30;-18471.91;;;8.92;100.00
60583;BME280;46415;47.536;19.066;2024-03-08T11:24:38;-18469.72;;;8.84;100.00
60583;BME280;46415;47.536;19.066;2024-03-08T11:27:53;-18468.50;;;8.79;100.00
60583;BME280;46415;47.536;19.066;2024-03-08T11:34:15;-18462.31;;;8.56;100.00
60583;BME280;46415;47.536;19.066;2024-03-08T11:37:20;-18466.28;;;8.71;100.00
60583;BME280;46415;47.536;19.066;2024-03-08T11:40:24;-18469.19;;;8.82;100.00
60583;BME280;46415;47.536;19.066;2024-03-08T11:43:27;-18472.87;;;8.95;100.00
60583;BME280;46415;47.536;19.066;2024-03-08T11:46:31;-18474.66;;;9.02;100.00
60583;BME280;46415;47.536;19.066;2024-03-08T11:49:34;-18477.53;;;9.13;100.00
60583;BME280;46415;47.536;19.066;2024-03-08T11:52:37;-18480.41;;;9.23;100.00
60583;BME280;46415;47.536;19.066;2024-03-08T11:55:40;-18477.53;;;9.13;100.00
60583;BME280;46415;47.536;19.066;2024-03-08T11:58:53;-18476.16;;;9.08;100.00
60583;BME280;46415;47.536;19.066;2024-03-08T12:02:06;-18480.97;;;9.25;100.00
60583;BME280;46415;47.536;19.066;2024-03-08T12:05:09;-18484.25;;;9.37;100.00
60583;BME280;46415;47.536;19.066;2024-03-08T12:08:13;-18497.28;;;9.86;100.00
60583;BME280;46415;47.536;19.066;2024-03-08T12:11:19;-18494.66;;;9.76;100.00
60583;BME280;46415;47.536;19.066;2024-03-08T12:14:26;-18495.75;;;9.80;100.00
60583;BME280;46415;47.536;19.066;2024-03-08T12:17:29;-18491.94;;;9.66;100.00
60583;BME280;46415;47.536;19.066;2024-03-08T12:20:32;-18487.97;;;9.51;100.00
60583;BME280;46415;47.536;19.066;2024-03-08T12:23:35;-18488.09;;;9.52;100.00
60583;BME280;46415;47.536;19.066;2024-03-08T12:26:38;-18480.41;;;9.23;100.00
60583;BME280;46415;47.536;19.066;2024-03-08T12:29:42;-18473.84;;;8.99;100.00
60583;BME280;46415;47.536;19.066;2024-03-08T12:33:04;-18467.53;;;8.76;100.00
60583;BME280;46415;47.536;19.066;2024-03-08T12:36:14;-18466.28;;;8.71;100.00
60583;BME280;46415;47.536;19.066;2024-03-08T12:39:18;-18468.09;;;8.78;100.00
60583;BME280;46415;47.536;19.066;2024-03-08T12:42:31;-18471.09;;;8.89;100.00
60583;BME280;46415;47.536;19.066;2024-03-08T12:45:34;-18479.19;;;9.19;100.00
60583;BME280;46415;47.536;19.066;2024-03-08T12:48:37;-18484.41;;;9.38;100.00
60583;BME280;46415;47.536;19.066;2024-03-08T12:51:44;-18481.66;;;9.28;100.00
60583;BME280;46415;47.536;19.066;2024-03-08T12:54:47;-18481.09;;;9.26;100.00
60583;BME280;46415;47.536;19.066;2024-03-08T12:57:52;-18480.41;;;9.23;100.00
60583;BME280;46415;47.536;19.066;2024-03-08T13:00:56;-18477.41;;;9.12;100.00
60583;BME280;46415;47.536;19.066;2024-03-08T13:03:59;-18480.41;;;9.23;100.00
60583;BME280;46415;47.536;19.066;2024-03-08T13:07:04;-18481.09;;;9.26;100.00
60583;BME280;46415;47.536;19.066;2024-03-08T13:10:08;-18478.38;;;9.16;100.00
60583;BME280;46415;47.536;19.066;2024-03-08T13:13:11;-18474.25;;;9.00;100.00
60583;BME280;46415;47.536;19.066;2024-03-08T13:16:16;-18472.87;;;8.95;100.00
60583;BME280;46415;47.536;19.066;2024-03-08T13:19:21;-18471.09;;;8.89;100.00
60583;BME280;46415;47.536;19.066;2024-03-08T13:22:25;-18472.06;;;8.92;100.00
60583;BME280;46415;47.536;19.066;2024-03-08T13:25:28;-18472.75;;;8.95;100.00
60583;BME280;46415;47.536;19.066;2024-03-08T13:28:31;-18469.72;;;8.84;100.00
60583;BME280;46415;47.536;19.066;2024-03-08T13:31:39;-18467.25;;;8.75;100.00
60583;BME280;46415;47.536;19.066;2024-03-08T13:34:43;-18466.44;;;8.72;100.00
60583;BME280;46415;47.536;19.066;2024-03-08T13:37:47;-18465.88;;;8.70;100.00
60583;BME280;46415;47.536;19.066;2024-03-08T13:40:50;-18466.16;;;8.71;100.00
60583;BME280;46415;47.536;19.066;2024-03-08T13:43:55;-18463.28;;;8.60;100.00
60583;BME280;46415;47.536;19.066;2024-03-08T13:46:58;-18466.16;;;8.71;100.00
60583;BME280;46415;47.536;19.066;2024-03-08T13:50:01;-18465.63;;;8.69;100.00
60583;BME280;46415;47.536;19.066;2024-03-08T13:53:04;-18465.63;;;8.69;100.00
60583;BME280;46415;47.536;19.066;2024-03-08T13:56:07;-18463.69;;;8.62;100.00
60583;BME280;46415;47.536;19.066;2024-03-08T13:59:13;-18463.28;;;8.60;100.00
60583;BME280;46415;47.536;19.066;2024-03-08T14:02:16;-18467.81;;;8.77;100.00
60583;BME280;46415;47.536;19.066;2024-03-08T14:05:20;-18474.38;;;9.01;100.00
60583;BME280;46415;47.536;19.066;2024-03-08T14:08:22;-18474.94;;;9.03;100.00
60583;BME280;46415;47.536;19.066;2024-03-08T14:11:27;-18477.41;;;9.12;100.00
60583;BME280;46415;47.536;19.066;2024-03-08T14:14:30;-18481.50;;;9.27;100.00
60583;BME280;46415;47.536;19.066;2024-03-08T14:17:33;-18476.03;;;9.07;100.00
60583;BME280;46415;47.536;19.066;2024-03-08T14:20:36;-18471.78;;;8.91;100.00
60583;BME280;46415;47.536;19.066;2024-03-08T14:23:41;-18467.94;;;8.77;100.00
60583;BME280;46415;47.536;19.066;2024-03-08T14:26:45;-18467.25;;;8.75;100.00
60583;BME280;46415;47.536;19.066;2024-03-08T14:29:51;-18464.66;;;8.65;100.00
60583;BME280;46415;47.536;19.066;2024-03-08T14:32:54;-18462.72;;;8.58;100.00
60583;BME280;46415;47.536;19.066;2024-03-08T14:35:57;-18466.72;;;8.73;100.00
60583;BME280;46415;47.536;19.066;2024-03-08T14:39:00;-18468.50;;;8.79;100.00
60583;BME280;46415;47.536;19.066;2024-03-08T14:42:03;-18467.53;;;8.76;100.00
60583;BME280;46415;47.536;19.066;2024-03-08T14:45:06;-18467.13;;;8.74;100.00
60583;BME280;46415;47.536;19.066;2024-03-08T14:48:09;-18463.97;;;8.63;100.00
60583;BME280;46415;47.536;19.066;2024-03-08T14:51:14;-18463.69;;;8.62;100.00
60583;BME280;46415;47.536;19.066;2024-03-08T14:54:17;-18463.28;;;8.60;100.00
60583;BME280;46415;47.536;19.066;2024-03-08T14:57:25;-18459.84;;;8.47;100.00
60583;BME280;46415;47.536;19.066;2024-03-08T15:00:28;-18457.38;;;8.38;100.00
60583;BME280;46415;47.536;19.066;2024-03-08T15:03:36;-18459.31;;;8.45;100.00
60583;BME280;46415;47.536;19.066;2024-03-08T15:06:42;-18455.75;;;8.32;100.00
60583;BME280;46415;47.536;19.066;2024-03-08T15:09:45;-18455.47;;;8.31;100.00
60583;BME280;46415;47.536;19.066;2024-03-08T15:12:48;-18453.13;;;8.23;100.00
60583;BME280;46415;47.536;19.066;2024-03-08T15:15:53;-18451.22;;;8.15;100.00
60583;BME280;46415;47.536;19.066;2024-03-08T15:19:00;-18449.16;;;8.08;100.00
60583;BME280;46415;47.536;19.066;2024-03-08T15:22:03;-18449.44;;;8.09;100.00
60583;BME280;46415;47.536;19.066;2024-03-08T15:25:07;-18449.97;;;8.11;100.00
60583;BME280;46415;47.536;19.066;2024-03-08T15:28:10;-18448.31;;;8.05;100.00
60583;BME280;46415;47.536;19.066;2024-03-08T15:31:18;-18448.06;;;8.04;100.00
60583;BME280;46415;47.536;19.066;2024-03-08T15:34:23;-18446.28;;;7.97;100.00
60583;BME280;46415;47.536;19.066;2024-03-08T15:37:28;-18445.44;;;7.94;100.00
60583;BME280;46415;47.536;19.066;2024-03-08T15:40:32;-18444.75;;;7.92;100.00
60583;BME280;46415;47.536;19.066;2024-03-08T15:43:41;-18442.69;;;7.84;100.00
60583;BME280;46415;47.536;19.066;2024-03-08T15:46:44;-18443.66;;;7.88;100.00
60583;BME280;46415;47.536;19.066;2024-03-08T15:49:48;-18443.94;;;7.89;100.00
60583;BME280;46415;47.536;19.066;2024-03-08T15:52:52;-18441.19;;;7.78;100.00
60583;BME280;46415;47.536;19.066;2024-03-08T15:55:58;-18441.59;;;7.80;100.00
60583;BME280;46415;47.536;19.066;2024-03-08T15:59:01;-18441.88;;;7.81;100.00
60583;BME280;46415;47.536;19.066;2024-03-08T16:02:09;-18441.75;;;7.80;100.00